Observations for ROME FIUMICINO, Italy (LIRF)

LIRF 180650Z 05003KT 010V110 CAVOK 24/20 Q1014 NOSIG
LIRF 180620Z 06004KT 030V090 CAVOK 22/20 Q1014 NOSIG
LIRF 180550Z 03003KT 7000 NSC 21/19 Q1014 NOSIG 
LIRF 180520Z VRB02KT 3000 1000N R16L/1000U R16R/1000D R25/0375N R34R/P1500N PRFG NSC 20/19 Q1014 NOSIG  
LIRF 180450Z 35002KT 0800 0100NE R16L/0300N R16R/0225V0350N R25/0375N R34R/P1500N FG NSC 19/18 Q1014 NOSIG  
LIRF 180420Z 02002KT 8000 R16L/0450D R16R/P1500N R25/0300V0800U R34R/P1500N NSC 17/17 Q1014 TEMPO 4000 BCFG 
LIRF 180350Z 11001KT 9000 MIFG FEW030 18/18 Q1013 TEMPO 4000 BCFG   
LIRF 180320Z 08002KT 8000 R16L/P1500N R16R/P1500N R25/1300D R34R/P1500N NSC 18/18 Q1013 BECMG 4000 BR   
LIRF 180250Z VRB01KT 9999 FEW008 19/18 Q1013 NOSIG  
LIRF 180220Z 05003KT 9999 FEW008 18/18 Q1013 NOSIG  
LIRF 180150Z 11003KT 9999 SCT008 19/19 Q1013 BECMG BKN 005  
LIRF 180120Z 09003KT 9999 SCT008 20/19 Q1014 BECMG BKN 005  
LIRF 180020Z 02003KT 9999 SCT020 19/18 Q1014 NOSIG  
LIRF 172350Z VRB02KT CAVOK 20/19 Q1014 NOSIG
LIRF 172320Z 25003KT CAVOK 20/19 Q1014 NOSIG
LIRF 172250Z 30002KT CAVOK 20/19 Q1014 NOSIG
LIRF 172220Z 30002KT CAVOK 20/19 Q1014 NOSIG
LIRF 172150Z 29003KT CAVOK 20/19 Q1014 NOSIG
LIRF 172120Z VRB02KT CAVOK 20/19 Q1014 NOSIG
LIRF 172050Z 35002KT CAVOK 20/19 Q1013 NOSIG
LIRF 172020Z VRB02KT CAVOK 21/20 Q1013 NOSIG
LIRF 171950Z VRB01KT CAVOK 21/20 Q1013 NOSIG
LIRF 171920Z 32004KT CAVOK 21/20 Q1013 NOSIG
LIRF 171850Z 30006KT CAVOK 22/20 Q1013 NOSIG
LIRF 171750Z 27005KT 240V330 CAVOK 23/19 Q1013 NOSIG
LIRF 171720Z 29006KT 260V320 9999 FEW045 23/20 Q1013 NOSIG  
LIRF 171650Z 28007KT 260V320 CAVOK 24/19 Q1013 NOSIG
LIRF 171620Z 29008KT CAVOK 24/19 Q1013 NOSIG
LIRF 171550Z 28008KT CAVOK 25/17 Q1013 NOSIG
LIRF 171520Z 27009KT 240V300 CAVOK 25/18 Q1013 NOSIG
LIRF 171450Z 26010KT CAVOK 25/17 Q1013 NOSIG
LIRF 171420Z 27009KT 230V290 CAVOK 25/19 Q1013 NOSIG
LIRF 171350Z 26009KT CAVOK 26/19 Q1013 NOSIG
LIRF 171320Z 25008KT 230V290 CAVOK 26/19 Q1013 NOSIG
LIRF 171250Z 26007KT 230V300 9999 FEW020 26/20 Q1013 NOSIG  
LIRF 171220Z 25009KT 220V290 CAVOK 26/19 Q1013 NOSIG
LIRF 171150Z 26008KT 230V290 CAVOK 26/18 Q1013 NOSIG
LIRF 171120Z 24010KT CAVOK 26/19 Q1013 NOSIG
LIRF 171050Z 23009KT 190V250 CAVOK 26/20 Q1014 NOSIG
LIRF 171020Z 23010KT 180V250 CAVOK 26/20 Q1014 NOSIG
LIRF 170950Z 23009KT 9999 FEW030 26/20 Q1014 NOSIG  
LIRF 170920Z 27005KT 230V320 CAVOK 25/20 Q1014 NOSIG
LIRF 170850Z 26006KT 220V300 CAVOK 25/20 Q1014 NOSIG
LIRF 170820Z VRB02KT CAVOK 26/18 Q1014 NOSIG
LIRF 170750Z VRB03KT CAVOK 25/18 Q1014 NOSIG
LIRF 170720Z 14003KT 100V190 CAVOK 23/19 Q1014 NOSIG
LIRF 170650Z 08004KT 040V120 9999 FEW020 23/19 Q1014 NOSIG  
LIRF 170620Z 08005KT 9000 NSC 21/19 Q1014 NOSIG